createdAt,value
2017-12-10T00:00:49.818Z,999.12
2017-12-10T00:01:49.786Z,999.39
2017-12-10T00:02:49.758Z,999.16
2017-12-10T00:03:49.711Z,998.80
2017-12-10T00:04:49.686Z,998.37
2017-12-10T00:05:49.655Z,999.07
2017-12-10T00:06:49.628Z,999.34
2017-12-10T00:07:49.587Z,998.37
2017-12-10T00:08:49.562Z,999.13
2017-12-10T00:09:49.524Z,999.33
2017-12-10T00:10:49.490Z,998.80
2017-12-10T00:11:49.463Z,999.15
2017-12-10T00:12:49.431Z,999.37
2017-12-10T00:13:49.396Z,999.12
2017-12-10T00:14:49.360Z,999.33
2017-12-10T00:15:49.322Z,999.24
2017-12-10T00:16:49.288Z,999.23
2017-12-10T00:17:49.320Z,999.24
2017-12-10T00:18:49.237Z,998.77
2017-12-10T00:19:49.192Z,999.03
2017-12-10T00:20:49.167Z,999.25
2017-12-10T00:21:49.138Z,998.85
2017-12-10T00:22:49.108Z,999.03
2017-12-10T00:23:49.072Z,999.13
2017-12-10T00:24:49.039Z,999.07
2017-12-10T00:25:48.998Z,998.94
2017-12-10T00:26:48.978Z,999.09
2017-12-10T00:27:48.931Z,998.57
2017-12-10T00:28:48.899Z,999.04
2017-12-10T00:29:48.879Z,998.93
2017-12-10T00:30:48.840Z,999.14
2017-12-10T00:31:48.807Z,998.82
2017-12-10T00:32:48.783Z,998.89
2017-12-10T00:33:48.749Z,999.06
2017-12-10T00:34:48.716Z,998.70
2017-12-10T00:35:48.684Z,998.96
2017-12-10T00:36:48.651Z,999.04
2017-12-10T00:37:48.617Z,998.98
2017-12-10T00:38:48.588Z,999.01
2017-12-10T00:39:48.555Z,999.03
2017-12-10T00:40:48.517Z,999.10
2017-12-10T00:41:48.494Z,998.58
2017-12-10T00:42:48.458Z,998.66
2017-12-10T00:43:48.417Z,999.09
2017-12-10T00:44:48.392Z,998.95
2017-12-10T00:45:48.363Z,998.67
2017-12-10T00:46:48.571Z,998.64
2017-12-10T00:47:48.295Z,998.83
2017-12-10T00:48:48.273Z,998.30
2017-12-10T00:49:48.227Z,998.82
2017-12-10T00:50:48.200Z,998.92
2017-12-10T00:51:48.165Z,998.87
2017-12-10T00:52:48.141Z,998.74
2017-12-10T00:53:48.101Z,998.78
2017-12-10T00:54:48.061Z,998.84
2017-12-10T00:55:48.026Z,998.93
2017-12-10T00:56:47.993Z,998.86
2017-12-10T00:57:47.964Z,998.92
2017-12-10T00:58:47.932Z,998.74
2017-12-10T00:59:47.902Z,998.76
2017-12-10T01:00:47.873Z,998.75
2017-12-10T01:01:47.845Z,998.70
2017-12-10T01:02:47.808Z,998.53
2017-12-10T01:03:47.771Z,998.28
2017-12-10T01:04:47.737Z,998.81
2017-12-10T01:05:47.712Z,998.60
2017-12-10T01:06:47.676Z,998.55
2017-12-10T01:07:47.642Z,998.60
2017-12-10T01:08:47.620Z,998.48
2017-12-10T01:09:47.587Z,998.49
2017-12-10T01:10:48.351Z,998.29
2017-12-10T01:11:47.514Z,998.46
2017-12-10T01:12:47.477Z,998.48
2017-12-10T01:13:47.455Z,998.04
2017-12-10T01:14:47.424Z,998.40
2017-12-10T01:15:47.380Z,998.22
2017-12-10T01:16:47.595Z,998.52
2017-12-10T01:17:47.326Z,998.50
2017-12-10T01:18:47.305Z,998.22
2017-12-10T01:19:47.265Z,998.31
2017-12-10T01:20:47.227Z,998.39
2017-12-10T01:21:47.186Z,998.43
2017-12-10T01:22:47.166Z,998.56
2017-12-10T01:23:47.129Z,998.43
2017-12-10T01:24:47.100Z,998.37
2017-12-10T01:25:47.063Z,997.90
2017-12-10T01:26:47.023Z,998.45
2017-12-10T01:27:46.994Z,997.93
2017-12-10T01:28:46.958Z,998.57
2017-12-10T01:29:46.929Z,998.24
2017-12-10T01:30:46.897Z,998.14
2017-12-10T01:31:46.876Z,997.95
2017-12-10T01:32:46.835Z,998.30
2017-12-10T01:33:46.811Z,998.33
2017-12-10T01:34:47.068Z,997.76
2017-12-10T01:35:46.735Z,998.44
2017-12-10T01:36:46.707Z,998.20
2017-12-10T01:37:46.667Z,998.09
2017-12-10T01:38:46.634Z,997.94
2017-12-10T01:39:46.620Z,998.16
2017-12-10T01:40:46.586Z,997.94
2017-12-10T01:41:46.535Z,998.14
2017-12-10T01:42:46.512Z,998.12
2017-12-10T01:43:46.475Z,998.09
2017-12-10T01:44:46.449Z,998.07
2017-12-10T01:45:46.415Z,998.12
2017-12-10T01:46:46.391Z,998.27
2017-12-10T01:47:46.349Z,998.11
2017-12-10T01:48:46.320Z,997.91
2017-12-10T01:49:46.286Z,997.62
2017-12-10T01:50:46.250Z,997.89
2017-12-10T01:51:46.216Z,997.75
2017-12-10T01:52:46.189Z,997.94
2017-12-10T01:53:46.146Z,997.69
2017-12-10T01:54:46.197Z,998.03
2017-12-10T01:55:46.094Z,997.96
2017-12-10T01:56:46.052Z,997.85
2017-12-10T01:57:46.025Z,998.05
2017-12-10T01:58:45.996Z,998.16
2017-12-10T01:59:45.959Z,998.02
2017-12-10T02:00:45.929Z,997.96
2017-12-10T02:01:45.897Z,997.95
2017-12-10T02:02:45.856Z,998.02
2017-12-10T02:03:45.828Z,997.46
2017-12-10T02:04:45.799Z,997.79
2017-12-10T02:05:45.768Z,997.71
2017-12-10T02:06:45.737Z,997.57
2017-12-10T02:07:45.694Z,997.77
2017-12-10T02:08:45.666Z,997.98
2017-12-10T02:09:45.635Z,997.26
2017-12-10T02:10:45.600Z,997.79
2017-12-10T02:11:45.580Z,997.23
2017-12-10T02:12:45.533Z,997.35
2017-12-10T02:13:45.496Z,997.64
2017-12-10T02:14:45.466Z,997.58
2017-12-10T02:15:45.434Z,997.88
2017-12-10T02:16:45.400Z,997.42
2017-12-10T02:17:45.370Z,997.54
2017-12-10T02:18:45.339Z,997.43
2017-12-10T02:19:45.304Z,997.02
2017-12-10T02:20:45.281Z,997.65
2017-12-10T02:21:45.245Z,997.90
2017-12-10T02:22:45.216Z,997.74
2017-12-10T02:23:45.190Z,997.14
2017-12-10T02:24:45.144Z,997.45
2017-12-10T02:25:45.112Z,997.45
2017-12-10T02:26:45.076Z,997.28
2017-12-10T02:27:45.055Z,997.41
2017-12-10T02:28:45.015Z,997.34
2017-12-10T02:29:44.982Z,997.02
2017-12-10T02:30:44.943Z,997.08
2017-12-10T02:31:44.920Z,997.51
2017-12-10T02:32:44.883Z,997.20
2017-12-10T02:33:44.851Z,997.20
2017-12-10T02:34:44.824Z,997.00
2017-12-10T02:35:44.791Z,996.98
2017-12-10T02:36:44.759Z,997.33
2017-12-10T02:37:44.721Z,996.98
2017-12-10T02:38:44.683Z,997.09
2017-12-10T02:39:44.655Z,997.09
2017-12-10T02:40:44.621Z,996.92
2017-12-10T02:41:44.588Z,997.45
2017-12-10T02:42:44.567Z,997.08
2017-12-10T02:43:44.533Z,997.14
2017-12-10T02:44:44.491Z,997.25
2017-12-10T02:45:44.464Z,997.24
2017-12-10T02:46:44.424Z,997.31
2017-12-10T02:47:44.393Z,997.09
2017-12-10T02:48:44.360Z,996.92
2017-12-10T02:49:44.329Z,997.03
2017-12-10T02:50:44.294Z,996.94
2017-12-10T02:51:44.276Z,996.73
2017-12-10T02:52:44.245Z,996.71
2017-12-10T02:53:44.198Z,997.08
2017-12-10T02:54:44.159Z,997.00
2017-12-10T02:55:44.136Z,996.69
2017-12-10T02:56:44.104Z,997.04
2017-12-10T02:57:44.066Z,996.68
2017-12-10T02:58:44.042Z,997.12
2017-12-10T02:59:44.007Z,996.86
2017-12-10T03:00:43.971Z,997.26
2017-12-10T03:01:43.939Z,996.84
2017-12-10T03:02:43.910Z,996.55
2017-12-10T03:03:43.872Z,996.72
2017-12-10T03:04:43.846Z,996.95
2017-12-10T03:05:43.805Z,996.80
2017-12-10T03:06:43.768Z,996.76
2017-12-10T03:07:43.739Z,996.65
2017-12-10T03:08:43.713Z,996.99
2017-12-10T03:09:43.673Z,996.78
2017-12-10T03:10:43.644Z,996.67
2017-12-10T03:11:43.615Z,996.69
2017-12-10T03:12:43.582Z,996.51
2017-12-10T03:13:43.551Z,996.79
2017-12-10T03:14:43.517Z,996.51
2017-12-10T03:15:43.483Z,996.78
2017-12-10T03:16:43.442Z,996.79
2017-12-10T03:17:43.413Z,996.84
2017-12-10T03:18:43.384Z,996.84
2017-12-10T03:19:43.349Z,996.72
2017-12-10T03:20:43.316Z,996.75
2017-12-10T03:21:43.286Z,996.85
2017-12-10T03:22:43.247Z,996.38
2017-12-10T03:23:43.223Z,996.77
2017-12-10T03:24:43.187Z,996.83
2017-12-10T03:25:43.154Z,996.68
2017-12-10T03:26:43.131Z,996.35
2017-12-10T03:27:43.093Z,996.75
2017-12-10T03:28:43.060Z,996.76
2017-12-10T03:29:43.032Z,996.38
2017-12-10T03:30:42.995Z,996.76
2017-12-10T03:31:42.961Z,996.69
2017-12-10T03:32:42.925Z,996.63
2017-12-10T03:33:42.902Z,996.82
2017-12-10T03:34:42.859Z,996.42
2017-12-10T03:35:42.832Z,996.63
2017-12-10T03:36:42.794Z,996.72
2017-12-10T03:37:42.766Z,996.61
2017-12-10T03:38:42.738Z,996.31
2017-12-10T03:39:42.705Z,996.21
2017-12-10T03:40:42.678Z,996.48
2017-12-10T03:41:42.635Z,995.90
2017-12-10T03:42:42.598Z,996.58
2017-12-10T03:43:42.559Z,996.53
2017-12-10T03:44:42.538Z,996.23
2017-12-10T03:45:42.512Z,996.46
2017-12-10T03:46:42.469Z,996.07
2017-12-10T03:47:42.445Z,996.35
2017-12-10T03:48:42.395Z,996.15
2017-12-10T03:49:42.369Z,996.38
2017-12-10T03:50:42.345Z,996.57
2017-12-10T03:51:42.312Z,996.39
2017-12-10T03:52:42.276Z,994.99
2017-12-10T03:53:42.241Z,996.09
2017-12-10T03:54:42.205Z,996.22
2017-12-10T03:55:42.178Z,996.41
2017-12-10T03:56:42.145Z,996.26
2017-12-10T03:57:42.109Z,996.18
2017-12-10T03:58:42.085Z,996.39
2017-12-10T03:59:42.046Z,996.43
2017-12-10T04:00:42.007Z,996.32
2017-12-10T04:01:41.981Z,996.29
2017-12-10T04:02:41.954Z,996.24
2017-12-10T04:03:41.907Z,996.26
2017-12-10T04:04:41.881Z,995.99
2017-12-10T04:05:41.860Z,996.08
2017-12-10T04:06:41.821Z,996.07
2017-12-10T04:07:41.785Z,995.89
2017-12-10T04:08:41.747Z,996.28
2017-12-10T04:09:41.713Z,996.01
2017-12-10T04:10:41.683Z,995.95
2017-12-10T04:11:41.654Z,995.79
2017-12-10T04:12:41.620Z,995.60
2017-12-10T04:13:41.592Z,995.92
2017-12-10T04:14:41.549Z,995.30
2017-12-10T04:15:41.512Z,995.37
2017-12-10T04:16:41.481Z,995.59
2017-12-10T04:17:41.458Z,995.95
2017-12-10T04:18:41.423Z,995.57
2017-12-10T04:19:41.388Z,995.77
2017-12-10T04:20:41.357Z,995.96
2017-12-10T04:21:41.324Z,995.96
2017-12-10T04:22:41.287Z,995.92
2017-12-10T04:23:41.263Z,995.41
2017-12-10T04:24:41.232Z,995.73
2017-12-10T04:25:41.196Z,995.02
2017-12-10T04:26:41.163Z,995.99
2017-12-10T04:27:41.128Z,995.88
2017-12-10T04:28:41.093Z,995.35
2017-12-10T04:29:41.059Z,995.78
2017-12-10T04:30:41.029Z,995.59
2017-12-10T04:31:40.998Z,995.90
2017-12-10T04:32:40.962Z,995.94
2017-12-10T04:33:40.924Z,995.60
2017-12-10T04:34:40.903Z,995.67
2017-12-10T04:35:40.866Z,995.52
2017-12-10T04:36:40.829Z,995.42
2017-12-10T04:37:40.802Z,995.14
2017-12-10T04:38:40.762Z,995.64
2017-12-10T04:39:40.737Z,995.80
2017-12-10T04:40:40.701Z,995.80
2017-12-10T04:41:40.667Z,995.68
2017-12-10T04:42:40.626Z,995.75
2017-12-10T04:43:40.600Z,995.65
2017-12-10T04:44:40.560Z,995.39
2017-12-10T04:45:40.543Z,995.49
2017-12-10T04:46:40.500Z,995.64
2017-12-10T04:47:40.476Z,995.45
2017-12-10T04:48:40.432Z,995.20
2017-12-10T04:49:40.396Z,995.19
2017-12-10T04:50:40.367Z,995.62
2017-12-10T04:51:40.343Z,995.61
2017-12-10T04:52:40.302Z,995.52
2017-12-10T04:53:40.266Z,995.58
2017-12-10T04:54:40.238Z,995.24
2017-12-10T04:55:40.201Z,995.40
2017-12-10T04:56:40.176Z,995.50
2017-12-10T04:57:40.148Z,995.08
2017-12-10T04:58:40.107Z,995.31
2017-12-10T04:59:40.071Z,995.56
2017-12-10T05:00:40.042Z,995.47
2017-12-10T05:01:40.015Z,994.90
2017-12-10T05:02:39.975Z,994.76
2017-12-10T05:03:39.943Z,995.11
2017-12-10T05:04:39.915Z,995.41
2017-12-10T05:05:39.885Z,995.17
2017-12-10T05:06:39.851Z,995.20
2017-12-10T05:07:39.813Z,995.18
2017-12-10T05:08:39.779Z,994.68
2017-12-10T05:09:39.740Z,995.12
2017-12-10T05:10:39.711Z,995.13
2017-12-10T05:11:39.682Z,995.03
2017-12-10T05:12:39.650Z,994.97
2017-12-10T05:13:39.621Z,995.30
2017-12-10T05:14:39.589Z,995.19
2017-12-10T05:15:39.553Z,995.00
2017-12-10T05:16:39.518Z,995.16
2017-12-10T05:17:39.491Z,995.06
2017-12-10T05:18:39.455Z,995.06
2017-12-10T05:19:39.419Z,995.14
2017-12-10T05:20:39.395Z,994.67
2017-12-10T05:21:39.359Z,994.71
2017-12-10T05:22:39.318Z,995.03
2017-12-10T05:23:39.299Z,995.16
2017-12-10T05:24:39.268Z,995.02
2017-12-10T05:25:39.225Z,995.31
2017-12-10T05:26:39.189Z,994.95
2017-12-10T05:27:39.168Z,994.97
2017-12-10T05:28:39.135Z,995.04
2017-12-10T05:29:39.095Z,994.96
2017-12-10T05:30:39.068Z,994.91
2017-12-10T05:31:39.031Z,994.97
2017-12-10T05:32:39.006Z,994.61
2017-12-10T05:33:38.972Z,994.66
2017-12-10T05:34:38.951Z,994.83
2017-12-10T05:35:38.904Z,994.91
2017-12-10T05:36:38.874Z,994.79
2017-12-10T05:37:38.828Z,994.77
2017-12-10T05:38:38.799Z,994.52
2017-12-10T05:39:38.778Z,994.45
2017-12-10T05:40:38.742Z,994.63
2017-12-10T05:41:38.709Z,994.82
2017-12-10T05:42:38.673Z,994.49
2017-12-10T05:43:38.637Z,994.59
2017-12-10T05:44:38.606Z,994.83
2017-12-10T05:45:38.577Z,994.60
2017-12-10T05:46:38.541Z,994.43
2017-12-10T05:47:38.506Z,994.41
2017-12-10T05:48:38.478Z,994.44
2017-12-10T05:49:38.457Z,994.49
2017-12-10T05:50:38.416Z,994.22
2017-12-10T05:51:38.386Z,994.06
2017-12-10T05:52:38.346Z,994.28
2017-12-10T05:53:38.308Z,994.26
2017-12-10T05:54:38.279Z,994.52
2017-12-10T05:55:38.254Z,994.33
2017-12-10T05:56:38.231Z,994.26
2017-12-10T05:57:38.183Z,994.38
2017-12-10T05:58:38.152Z,994.48
2017-12-10T05:59:38.114Z,994.57
2017-12-10T06:00:38.083Z,994.19
2017-12-10T06:01:38.059Z,994.08
2017-12-10T06:02:38.031Z,994.26
2017-12-10T06:03:37.983Z,994.51
2017-12-10T06:04:37.956Z,994.23
2017-12-10T06:05:37.951Z,994.26
2017-12-10T06:06:37.900Z,994.04
2017-12-10T06:07:37.864Z,993.79
2017-12-10T06:08:37.829Z,994.26
2017-12-10T06:09:37.800Z,994.12
2017-12-10T06:10:37.754Z,994.09
2017-12-10T06:11:37.738Z,993.82
2017-12-10T06:12:37.693Z,993.72
2017-12-10T06:13:37.656Z,993.94
2017-12-10T06:14:37.624Z,993.89
2017-12-10T06:15:37.591Z,994.04
2017-12-10T06:16:37.556Z,993.73
2017-12-10T06:17:37.541Z,993.62
2017-12-10T06:18:37.506Z,993.86
2017-12-10T06:19:37.462Z,993.73
2017-12-10T06:20:37.436Z,994.00
2017-12-10T06:21:37.402Z,993.97
2017-12-10T06:22:37.376Z,993.75
2017-12-10T06:23:37.336Z,993.94
2017-12-10T06:24:37.311Z,993.41
2017-12-10T06:25:37.270Z,993.86
2017-12-10T06:26:37.241Z,993.55
2017-12-10T06:27:37.216Z,993.26
2017-12-10T06:28:37.177Z,993.54
2017-12-10T06:29:37.133Z,993.33
2017-12-10T06:30:37.102Z,993.40
2017-12-10T06:31:37.072Z,993.23
2017-12-10T06:32:37.044Z,993.43
2017-12-10T06:33:37.005Z,993.67
2017-12-10T06:34:36.976Z,993.60
2017-12-10T06:35:36.940Z,993.60
2017-12-10T06:36:36.917Z,993.65
2017-12-10T06:37:36.876Z,993.59
2017-12-10T06:38:36.851Z,993.34
2017-12-10T06:39:36.817Z,993.47
2017-12-10T06:40:36.794Z,993.20
2017-12-10T06:41:36.782Z,993.58
2017-12-10T06:42:36.713Z,993.35
2017-12-10T06:43:36.700Z,993.58
2017-12-10T06:44:36.649Z,993.52
2017-12-10T06:45:36.607Z,993.28
2017-12-10T06:46:36.582Z,993.26
2017-12-10T06:47:36.606Z,993.05
2017-12-10T06:48:36.523Z,993.19
2017-12-10T06:49:36.494Z,993.07
2017-12-10T06:50:36.451Z,993.27
2017-12-10T06:51:36.417Z,993.29
2017-12-10T06:52:36.443Z,993.19
2017-12-10T06:53:36.358Z,993.04
2017-12-10T06:54:36.334Z,993.04
2017-12-10T06:55:36.287Z,992.93
2017-12-10T06:56:36.260Z,993.02
2017-12-10T06:57:36.225Z,992.93
2017-12-10T06:58:36.189Z,992.91
2017-12-10T06:59:36.163Z,993.12
2017-12-10T07:00:36.127Z,992.87
2017-12-10T07:01:36.087Z,992.84
2017-12-10T07:02:36.058Z,993.00
2017-12-10T07:03:36.022Z,992.67
2017-12-10T07:04:35.986Z,992.81
2017-12-10T07:05:35.965Z,993.11
2017-12-10T07:06:35.934Z,992.89
2017-12-10T07:07:35.890Z,992.59
2017-12-10T07:08:35.865Z,992.84
2017-12-10T07:09:35.831Z,992.78
2017-12-10T07:10:35.806Z,992.47
2017-12-10T07:11:35.776Z,992.78
2017-12-10T07:12:35.730Z,992.63
2017-12-10T07:13:35.695Z,992.86
2017-12-10T07:14:35.663Z,992.38
2017-12-10T07:15:35.645Z,992.53
2017-12-10T07:16:35.604Z,992.22
2017-12-10T07:17:35.578Z,992.54
2017-12-10T07:18:35.529Z,992.37
2017-12-10T07:19:35.540Z,992.51
2017-12-10T07:20:35.470Z,992.34
2017-12-10T07:21:35.437Z,992.46
2017-12-10T07:22:35.414Z,992.39
2017-12-10T07:23:35.375Z,992.15
2017-12-10T07:24:35.343Z,992.36
2017-12-10T07:25:35.308Z,992.02
2017-12-10T07:26:35.274Z,992.20
2017-12-10T07:27:35.248Z,992.61
2017-12-10T07:28:35.217Z,992.59
2017-12-10T07:29:35.178Z,992.33
2017-12-10T07:30:35.150Z,992.14
2017-12-10T07:31:35.111Z,992.51
2017-12-10T07:32:35.084Z,992.42
2017-12-10T07:33:35.052Z,992.30
2017-12-10T07:34:35.024Z,992.46
2017-12-10T07:35:34.978Z,992.29
2017-12-10T07:36:34.953Z,992.29
2017-12-10T07:37:34.916Z,992.51
2017-12-10T07:38:34.893Z,992.05
2017-12-10T07:39:34.850Z,992.38
2017-12-10T07:40:34.821Z,992.31
2017-12-10T07:41:34.793Z,992.31
2017-12-10T07:42:34.755Z,992.24
2017-12-10T07:43:34.736Z,992.25
2017-12-10T07:44:34.689Z,992.03
2017-12-10T07:45:34.650Z,992.05
2017-12-10T07:46:34.620Z,992.14
2017-12-10T07:47:34.599Z,992.32
2017-12-10T07:48:34.557Z,992.20
2017-12-10T07:49:34.546Z,992.25
2017-12-10T07:50:34.491Z,992.43
2017-12-10T07:51:34.467Z,992.02
2017-12-10T07:52:34.432Z,992.10
2017-12-10T07:53:34.403Z,991.98
2017-12-10T07:54:34.367Z,992.19
2017-12-10T07:55:34.341Z,992.07
2017-12-10T07:56:34.303Z,991.83
2017-12-10T07:57:34.274Z,992.17
2017-12-10T07:58:34.241Z,991.99
2017-12-10T07:59:34.200Z,992.28
2017-12-10T08:00:34.170Z,992.03
2017-12-10T08:01:34.134Z,992.00
2017-12-10T08:02:34.107Z,992.12
2017-12-10T08:03:34.080Z,991.70
2017-12-10T08:04:34.044Z,991.93
2017-12-10T08:05:34.000Z,991.95
2017-12-10T08:06:34.002Z,991.97
2017-12-10T08:07:33.951Z,992.35
2017-12-10T08:08:33.911Z,992.04
2017-12-10T08:09:33.879Z,992.01
2017-12-10T08:10:33.847Z,991.90
2017-12-10T08:11:33.813Z,991.89
2017-12-10T08:12:33.780Z,992.00
2017-12-10T08:13:33.749Z,992.06
2017-12-10T08:14:33.731Z,991.58
2017-12-10T08:15:33.691Z,991.71
2017-12-10T08:16:33.660Z,991.64
2017-12-10T08:17:33.613Z,991.74
2017-12-10T08:18:33.588Z,991.73
2017-12-10T08:19:33.553Z,991.71
2017-12-10T08:20:33.522Z,991.65
2017-12-10T08:21:33.481Z,991.58
2017-12-10T08:22:33.460Z,991.77
2017-12-10T08:23:33.431Z,991.82
2017-12-10T08:24:33.394Z,991.85
2017-12-10T08:25:33.368Z,991.82
2017-12-10T08:26:33.335Z,991.76
2017-12-10T08:27:33.289Z,991.63
2017-12-10T08:28:33.275Z,991.68
2017-12-10T08:29:33.235Z,991.71
2017-12-10T08:30:33.199Z,991.60
2017-12-10T08:31:33.162Z,991.48
2017-12-10T08:32:33.140Z,991.49
2017-12-10T08:33:33.111Z,991.49
2017-12-10T08:34:33.067Z,991.58
2017-12-10T08:35:33.036Z,991.58
2017-12-10T08:36:33.005Z,991.63
2017-12-10T08:37:32.967Z,991.59
2017-12-10T08:38:33.232Z,991.52
2017-12-10T08:39:32.912Z,991.60
2017-12-10T08:40:32.869Z,991.49
2017-12-10T08:41:32.846Z,991.47
2017-12-10T08:42:32.807Z,991.51
2017-12-10T08:43:32.782Z,991.48
2017-12-10T08:44:32.748Z,991.37
2017-12-10T08:45:32.719Z,991.13
2017-12-10T08:46:32.682Z,991.28
2017-12-10T08:47:32.652Z,991.27
2017-12-10T08:48:32.621Z,991.30
2017-12-10T08:49:32.583Z,991.15
2017-12-10T08:50:32.548Z,991.11
2017-12-10T08:51:32.519Z,991.35
2017-12-10T08:52:32.493Z,991.05
2017-12-10T08:53:32.459Z,991.05
2017-12-10T08:54:32.417Z,991.12
2017-12-10T08:55:32.394Z,991.05
2017-12-10T08:56:32.361Z,991.09
2017-12-10T08:57:32.329Z,990.91
2017-12-10T08:58:32.304Z,990.99
2017-12-10T08:59:32.270Z,990.94
2017-12-10T09:00:32.239Z,990.94
2017-12-10T09:01:32.194Z,991.07
2017-12-10T09:02:32.163Z,990.80
2017-12-10T09:03:32.135Z,990.77
2017-12-10T09:04:32.109Z,990.86
2017-12-10T09:05:32.074Z,990.97
2017-12-10T09:06:32.043Z,990.90
2017-12-10T09:07:32.012Z,990.91
2017-12-10T09:08:31.974Z,990.89
2017-12-10T09:09:31.950Z,990.85
2017-12-10T09:10:31.920Z,990.90
2017-12-10T09:11:31.887Z,990.81
2017-12-10T09:12:31.855Z,990.81
2017-12-10T09:13:31.807Z,990.79
2017-12-10T09:14:31.775Z,990.76
2017-12-10T09:15:31.754Z,990.70
2017-12-10T09:16:31.729Z,990.77
2017-12-10T09:17:31.693Z,990.60
2017-12-10T09:18:31.663Z,990.58
2017-12-10T09:19:31.628Z,990.60
2017-12-10T09:20:31.592Z,990.62
2017-12-10T09:21:31.814Z,990.54
2017-12-10T09:22:31.532Z,990.35
2017-12-10T09:23:31.496Z,990.43
2017-12-10T09:24:31.465Z,990.37
2017-12-10T09:25:31.441Z,990.29
2017-12-10T09:26:31.412Z,990.25
2017-12-10T09:27:31.368Z,990.23
2017-12-10T09:28:31.349Z,990.27
2017-12-10T09:29:31.304Z,990.10
2017-12-10T09:30:31.275Z,990.15
2017-12-10T09:31:31.244Z,990.14
2017-12-10T09:32:31.216Z,990.03
2017-12-10T09:33:31.175Z,990.10
2017-12-10T09:34:31.148Z,990.12
2017-12-10T09:35:31.116Z,989.76
2017-12-10T09:36:31.089Z,989.96
2017-12-10T09:37:31.053Z,989.93
2017-12-10T09:38:31.026Z,989.87
2017-12-10T09:39:30.995Z,989.80
2017-12-10T09:40:30.954Z,989.90
2017-12-10T09:41:30.933Z,989.83
2017-12-10T09:42:30.901Z,989.83
2017-12-10T09:43:30.868Z,989.77
2017-12-10T09:44:30.839Z,989.77
2017-12-10T09:45:30.852Z,989.79
2017-12-10T09:46:30.770Z,989.71
2017-12-10T09:47:30.734Z,989.69
2017-12-10T09:48:30.703Z,989.65
2017-12-10T09:49:30.675Z,989.62
2017-12-10T09:50:30.644Z,989.58
2017-12-10T09:51:30.607Z,989.60
2017-12-10T09:52:30.572Z,989.59
2017-12-10T09:53:30.551Z,989.54
2017-12-10T09:54:30.524Z,989.41
2017-12-10T09:55:30.481Z,989.49
2017-12-10T09:56:30.451Z,989.39
2017-12-10T09:57:30.427Z,989.41
2017-12-10T09:58:30.396Z,989.36
2017-12-10T09:59:30.356Z,989.25
2017-12-10T10:00:30.330Z,989.21
2017-12-10T10:01:30.336Z,989.22
2017-12-10T10:02:30.257Z,989.11
2017-12-10T10:03:30.243Z,989.05
2017-12-10T10:04:30.198Z,989.04
2017-12-10T10:05:30.166Z,989.01
2017-12-10T10:06:30.142Z,989.03
2017-12-10T10:07:30.107Z,988.97
2017-12-10T10:08:30.079Z,988.91
2017-12-10T10:09:30.049Z,988.81
2017-12-10T10:10:30.020Z,988.85
2017-12-10T10:11:30.032Z,988.83
2017-12-10T10:12:29.955Z,988.79
2017-12-10T10:13:29.921Z,988.79
2017-12-10T10:14:29.892Z,988.86
2017-12-10T10:15:29.860Z,988.77
2017-12-10T10:16:29.831Z,988.72
2017-12-10T10:17:29.796Z,988.67
2017-12-10T10:18:29.764Z,988.65
2017-12-10T10:19:29.729Z,988.43
2017-12-10T10:20:29.710Z,988.64
2017-12-10T10:21:29.661Z,988.64
2017-12-10T10:22:29.630Z,988.64
2017-12-10T10:23:29.608Z,988.67
2017-12-10T10:24:29.570Z,988.55
2017-12-10T10:25:29.544Z,988.52
2017-12-10T10:26:29.509Z,988.52
2017-12-10T10:27:29.486Z,988.52
2017-12-10T10:28:29.445Z,988.40
2017-12-10T10:29:29.412Z,988.19
2017-12-10T10:30:29.385Z,988.35
2017-12-10T10:31:29.356Z,988.30
2017-12-10T10:32:29.329Z,988.31
2017-12-10T10:33:29.288Z,988.27
2017-12-10T10:34:29.255Z,988.24
2017-12-10T10:35:29.227Z,988.20
2017-12-10T10:36:29.192Z,988.17
2017-12-10T10:37:29.159Z,988.05
2017-12-10T10:38:29.131Z,988.10
2017-12-10T10:39:29.098Z,988.03
2017-12-10T10:40:29.072Z,988.01
2017-12-10T10:41:29.038Z,988.03
2017-12-10T10:42:29.011Z,988.01
2017-12-10T10:43:28.970Z,987.94
2017-12-10T10:44:28.945Z,987.92
2017-12-10T10:45:28.917Z,987.62
2017-12-10T10:46:28.891Z,987.63
2017-12-10T10:47:28.857Z,987.73
2017-12-10T10:48:28.823Z,987.81
2017-12-10T10:49:28.787Z,987.85
2017-12-10T10:50:28.754Z,987.80
2017-12-10T10:51:28.735Z,987.76
2017-12-10T10:52:28.703Z,987.58
2017-12-10T10:53:28.668Z,987.58
2017-12-10T10:54:28.632Z,987.57
2017-12-10T10:55:28.596Z,987.59
2017-12-10T10:56:28.564Z,987.58
2017-12-10T10:57:28.549Z,987.59
2017-12-10T10:58:28.505Z,987.59
2017-12-10T10:59:28.471Z,987.47
2017-12-10T11:00:28.442Z,987.42
2017-12-10T11:01:28.423Z,987.36
2017-12-10T11:02:28.391Z,987.33
2017-12-10T11:03:28.352Z,987.28
2017-12-10T11:04:28.325Z,987.28
2017-12-10T11:05:28.290Z,987.23
2017-12-10T11:06:28.264Z,987.27
2017-12-10T11:07:28.231Z,987.18
2017-12-10T11:08:28.204Z,987.08
2017-12-10T11:09:28.175Z,987.09
2017-12-10T11:10:28.140Z,987.03
2017-12-10T11:11:28.118Z,987.01
2017-12-10T11:12:28.077Z,986.98
2017-12-10T11:13:28.049Z,986.95
2017-12-10T11:14:28.009Z,986.93
2017-12-10T11:15:27.979Z,986.90
2017-12-10T11:16:27.950Z,986.98
2017-12-10T11:17:27.917Z,986.91
2017-12-10T11:18:27.881Z,986.90
2017-12-10T11:19:27.854Z,986.84
2017-12-10T11:20:27.892Z,986.70
2017-12-10T11:21:27.801Z,986.75
2017-12-10T11:22:27.770Z,986.71
2017-12-10T11:23:27.731Z,986.75
2017-12-10T11:24:27.709Z,986.70
2017-12-10T11:25:27.674Z,986.58
2017-12-10T11:26:27.652Z,986.57
2017-12-10T11:27:27.610Z,986.55
2017-12-10T11:28:27.578Z,986.52
2017-12-10T11:29:27.544Z,986.49
2017-12-10T11:30:27.510Z,986.45
2017-12-10T11:31:27.488Z,986.45
2017-12-10T11:32:27.456Z,986.41
2017-12-10T11:33:27.415Z,986.39
2017-12-10T11:34:27.386Z,986.34
2017-12-10T11:35:27.353Z,986.37
2017-12-10T11:36:27.325Z,986.31
2017-12-10T11:37:27.303Z,986.25
2017-12-10T11:38:27.267Z,986.21
2017-12-10T11:39:27.228Z,986.12
2017-12-10T11:40:27.194Z,986.18
2017-12-10T11:41:27.168Z,986.09
2017-12-10T11:42:27.140Z,986.10
2017-12-10T11:43:27.105Z,986.11
2017-12-10T11:44:27.081Z,986.09
2017-12-10T11:45:27.046Z,985.98
2017-12-10T11:46:27.009Z,985.86
2017-12-10T11:47:26.995Z,985.93
2017-12-10T11:48:26.953Z,985.93
2017-12-10T11:49:26.914Z,985.90
2017-12-10T11:50:26.883Z,985.87
2017-12-10T11:51:26.910Z,985.84
2017-12-10T11:52:26.824Z,985.74
2017-12-10T11:53:26.801Z,985.76
2017-12-10T11:54:26.764Z,985.77
2017-12-10T11:55:26.736Z,985.70
2017-12-10T11:56:26.702Z,985.67
2017-12-10T11:57:26.708Z,985.66
2017-12-10T11:58:26.643Z,985.60
2017-12-10T11:59:26.617Z,985.52
2017-12-10T12:00:26.589Z,985.48
2017-12-10T12:01:26.541Z,985.49
2017-12-10T12:02:26.517Z,985.43
2017-12-10T12:03:26.485Z,985.27
2017-12-10T12:04:26.463Z,985.38
2017-12-10T12:05:26.417Z,985.38
2017-12-10T12:06:26.395Z,985.38
2017-12-10T12:07:26.367Z,985.34
2017-12-10T12:08:26.330Z,985.37
2017-12-10T12:09:26.303Z,985.13
2017-12-10T12:10:26.271Z,985.30
2017-12-10T12:11:26.230Z,985.14
2017-12-10T12:12:26.201Z,985.21
2017-12-10T12:13:26.178Z,985.15
2017-12-10T12:14:26.139Z,985.13
2017-12-10T12:15:26.116Z,985.10
2017-12-10T12:16:26.084Z,985.06
2017-12-10T12:17:26.048Z,985.13
2017-12-10T12:18:26.010Z,984.91
2017-12-10T12:19:25.994Z,984.99
2017-12-10T12:20:25.955Z,984.94
2017-12-10T12:21:25.918Z,984.88
2017-12-10T12:22:25.894Z,984.82
2017-12-10T12:23:25.862Z,984.81
2017-12-10T12:24:25.831Z,984.85
2017-12-10T12:25:25.795Z,984.72
2017-12-10T12:26:25.774Z,984.74
2017-12-10T12:27:25.733Z,984.67
2017-12-10T12:28:25.698Z,984.59